createdAt,value
2022-09-12T00:01:20.663Z,14.42
2022-09-12T00:03:49.684Z,14.84
2022-09-12T00:06:22.830Z,14.95
2022-09-12T00:08:55.117Z,14.88
2022-09-12T00:11:24.105Z,14.63
2022-09-12T00:13:52.320Z,14.78
2022-09-12T00:16:22.788Z,14.73
2022-09-12T00:18:51.520Z,14.76
2022-09-12T00:21:20.123Z,14.76
2022-09-12T00:23:48.990Z,14.71
2022-09-12T00:26:19.643Z,14.53
2022-09-12T00:28:48.720Z,14.64
2022-09-12T00:31:18.877Z,14.57
2022-09-12T00:33:47.931Z,14.57
2022-09-12T00:36:18.383Z,14.51
2022-09-12T00:38:47.664Z,13.69
2022-09-12T00:41:21.533Z,14.41
2022-09-12T00:43:51.087Z,14.38
2022-09-12T00:46:30.259Z,14.06
2022-09-12T00:49:05.463Z,14.33
2022-09-12T00:51:35.798Z,14.25
2022-09-12T00:54:11.942Z,14.22
2022-09-12T00:56:44.695Z,14.08
2022-09-12T00:59:19.010Z,14.09
2022-09-12T01:01:50.798Z,13.99
2022-09-12T01:04:21.359Z,13.98
2022-09-12T01:06:51.208Z,14.11
2022-09-12T01:09:22.013Z,14.11
2022-09-12T01:11:53.187Z,14.09
2022-09-12T01:14:22.134Z,13.70
2022-09-12T01:16:51.936Z,13.98
2022-09-12T01:19:58.761Z,14.03
2022-09-12T01:22:55.149Z,13.99
2022-09-12T01:25:32.527Z,14.01
2022-09-12T01:28:32.631Z,14.01
2022-09-12T01:31:08.016Z,14.01
2022-09-12T01:33:51.193Z,13.95
2022-09-12T01:36:36.069Z,13.75
2022-09-12T01:39:06.775Z,13.88
2022-09-12T01:41:46.133Z,13.87
2022-09-12T01:44:23.197Z,13.83
2022-09-12T01:46:57.834Z,13.89
2022-09-12T01:49:29.870Z,13.88
2022-09-12T01:52:02.200Z,13.92
2022-09-12T01:54:38.008Z,13.90
2022-09-12T01:57:14.173Z,13.65
2022-09-12T01:59:46.762Z,13.68
2022-09-12T02:02:19.424Z,13.66
2022-09-12T02:04:54.003Z,13.72
2022-09-12T02:07:27.555Z,13.70
2022-09-12T02:10:00.761Z,13.67
2022-09-12T02:12:36.264Z,13.63
2022-09-12T02:15:10.085Z,13.53
2022-09-12T02:17:43.762Z,13.53
2022-09-12T02:20:31.124Z,13.55
2022-09-12T02:23:08.437Z,13.46
2022-09-12T02:25:43.171Z,13.47
2022-09-12T02:28:15.340Z,13.44
2022-09-12T02:30:50.943Z,13.58
2022-09-12T02:33:27.810Z,13.60
2022-09-12T02:36:05.078Z,13.46
2022-09-12T02:38:41.295Z,13.57
2022-09-12T02:41:09.516Z,13.49
2022-09-12T02:43:38.916Z,13.45
2022-09-12T02:46:12.585Z,13.53
2022-09-12T02:48:44.923Z,13.45
2022-09-12T02:51:14.105Z,13.42
2022-09-12T02:53:43.367Z,13.46
2022-09-12T02:56:18.442Z,13.54
2022-09-12T02:58:47.570Z,13.41
2022-09-12T03:01:31.234Z,13.49
2022-09-12T03:04:22.528Z,13.52
2022-09-12T03:07:01.094Z,13.61
2022-09-12T03:09:38.586Z,13.59
2022-09-12T03:12:19.946Z,13.61
2022-09-12T03:15:07.476Z,13.68
2022-09-12T03:17:48.526Z,13.69
2022-09-12T03:20:30.157Z,13.69
2022-09-12T03:23:04.348Z,13.66
2022-09-12T03:25:37.465Z,13.84
2022-09-12T03:28:09.955Z,13.46
2022-09-12T03:30:42.911Z,13.73
2022-09-12T03:33:13.163Z,13.70
2022-09-12T03:35:43.799Z,13.64
2022-09-12T03:38:12.049Z,13.15
2022-09-12T03:40:40.469Z,13.71
2022-09-12T03:43:10.642Z,13.83
2022-09-12T03:45:40.022Z,13.94
2022-09-12T03:48:08.294Z,13.95
2022-09-12T03:50:36.406Z,13.93
2022-09-12T03:53:06.030Z,14.08
2022-09-12T03:55:34.180Z,14.04
2022-09-12T03:58:02.569Z,13.96
2022-09-12T04:00:30.822Z,13.76
2022-09-12T04:02:59.084Z,13.77
2022-09-12T04:05:27.962Z,13.40
2022-09-12T04:07:56.547Z,13.73
2022-09-12T04:10:26.241Z,13.62
2022-09-12T04:12:54.835Z,13.82
2022-09-12T04:15:22.993Z,13.87
2022-09-12T04:17:51.181Z,13.75
2022-09-12T04:20:19.565Z,13.84
2022-09-12T04:22:47.817Z,13.70
2022-09-12T04:25:16.153Z,13.83
2022-09-12T04:27:45.710Z,13.70
2022-09-12T04:30:14.646Z,13.61
2022-09-12T04:32:42.810Z,13.67
2022-09-12T04:35:12.496Z,13.63
2022-09-12T04:37:40.898Z,13.50
2022-09-12T04:40:10.220Z,13.52
2022-09-12T04:42:38.430Z,13.77
2022-09-12T04:45:09.365Z,13.11
2022-09-12T04:47:37.567Z,13.79
2022-09-12T04:50:06.655Z,13.77
2022-09-12T04:52:34.876Z,13.65
2022-09-12T04:55:03.022Z,13.63
2022-09-12T04:57:31.268Z,13.61
2022-09-12T05:00:02.754Z,13.64
2022-09-12T05:02:36.083Z,13.71
2022-09-12T05:05:04.467Z,13.76
2022-09-12T05:07:32.677Z,13.81
2022-09-12T05:10:01.223Z,13.92
2022-09-12T05:12:29.577Z,14.10
2022-09-12T05:14:58.223Z,14.32
2022-09-12T05:17:26.448Z,14.42
2022-09-12T05:19:55.999Z,14.51
2022-09-12T05:22:24.153Z,14.63
2022-09-12T05:24:52.381Z,14.75
2022-09-12T05:27:20.638Z,14.86
2022-09-12T05:29:48.881Z,14.98
2022-09-12T05:32:16.969Z,13.21
2022-09-12T05:34:45.448Z,15.23
2022-09-12T05:37:15.089Z,14.67
2022-09-12T05:39:44.759Z,15.50
2022-09-12T05:42:13.016Z,15.58
2022-09-12T05:44:41.158Z,15.60
2022-09-12T05:47:12.969Z,15.71
2022-09-12T05:49:41.781Z,15.93
2022-09-12T05:52:09.873Z,16.07
2022-09-12T05:54:39.528Z,15.97
2022-09-12T05:57:07.608Z,15.89
2022-09-12T05:59:36.021Z,16.01
2022-09-12T06:02:04.464Z,16.19
2022-09-12T06:04:32.648Z,16.38
2022-09-12T06:07:00.750Z,16.44
2022-09-12T06:09:29.034Z,16.61
2022-09-12T06:11:58.842Z,16.64
2022-09-12T06:14:27.158Z,16.77
2022-09-12T06:16:55.439Z,16.84
2022-09-12T06:19:25.205Z,16.82
2022-09-12T06:21:53.552Z,16.97
2022-09-12T06:24:23.022Z,17.14
2022-09-12T06:26:52.847Z,17.05
2022-09-12T06:29:22.486Z,17.28
2022-09-12T06:31:50.576Z,17.35
2022-09-12T06:34:19.685Z,17.32
2022-09-12T06:36:50.328Z,17.30
2022-09-12T06:39:20.710Z,17.23
2022-09-12T06:41:49.736Z,17.36
2022-09-12T06:44:20.310Z,17.36
2022-09-12T06:46:50.346Z,17.24
2022-09-12T06:49:19.018Z,16.93
2022-09-12T06:51:47.289Z,17.43
2022-09-12T06:54:17.141Z,17.48
2022-09-12T06:56:45.945Z,17.63
2022-09-12T06:59:14.335Z,17.66
2022-09-12T07:01:43.052Z,17.61
2022-09-12T07:04:12.827Z,17.72
2022-09-12T07:06:43.046Z,17.88
2022-09-12T07:09:13.148Z,17.88
2022-09-12T07:11:43.042Z,17.87
2022-09-12T07:14:13.136Z,17.95
2022-09-12T07:16:41.740Z,17.49
2022-09-12T07:19:10.944Z,17.93
2022-09-12T07:21:41.051Z,17.91
2022-09-12T07:24:11.040Z,18.05
2022-09-12T07:26:40.360Z,18.27
2022-09-12T07:32:03.374Z,18.41
2022-09-12T07:34:31.645Z,18.54
2022-09-12T07:37:01.193Z,18.68
2022-09-12T07:39:29.293Z,18.88
2022-09-12T07:41:57.883Z,19.08
2022-09-12T07:44:27.092Z,19.09
2022-09-12T07:46:55.353Z,19.17
2022-09-12T07:49:23.603Z,19.25
2022-09-12T07:51:52.043Z,19.16
2022-09-12T07:54:21.798Z,19.38
2022-09-12T07:56:50.030Z,19.38
2022-09-12T07:59:35.366Z,19.77
2022-09-12T08:02:06.952Z,19.92
2022-09-12T08:04:36.597Z,20.17
2022-09-12T08:07:05.108Z,20.31
2022-09-12T08:09:34.651Z,20.09
2022-09-12T08:12:03.558Z,20.12
2022-09-12T08:14:32.127Z,19.99
2022-09-12T08:17:00.306Z,19.82
2022-09-12T08:19:28.539Z,19.65
2022-09-12T08:21:56.686Z,19.83
2022-09-12T08:24:25.217Z,20.24
2022-09-12T08:26:54.726Z,20.61
2022-09-12T08:29:22.853Z,20.89
2022-09-12T08:31:53.982Z,20.59
2022-09-12T08:34:26.293Z,20.72
2022-09-12T08:36:55.425Z,20.79
2022-09-12T08:39:24.758Z,21.09
2022-09-12T08:42:03.219Z,21.47
2022-09-12T08:45:00.501Z,21.65
2022-09-12T08:47:32.482Z,21.68
2022-09-12T08:50:18.685Z,21.55
2022-09-12T08:52:54.862Z,21.53
2022-09-12T08:57:57.649Z,21.63
2022-09-12T09:00:29.443Z,21.71
2022-09-12T09:03:30.281Z,21.81
2022-09-12T09:06:08.409Z,21.93
2022-09-12T09:08:57.198Z,22.00
2022-09-12T09:11:40.123Z,21.99
2022-09-12T09:14:46.758Z,21.78
2022-09-12T09:17:21.648Z,22.14
2022-09-12T09:19:56.637Z,21.88
2022-09-12T09:22:33.820Z,22.43
2022-09-12T09:25:06.581Z,22.62
2022-09-12T09:27:41.205Z,22.75
2022-09-12T09:30:16.783Z,21.36
2022-09-12T09:32:48.819Z,22.66
2022-09-12T09:35:20.716Z,22.78
2022-09-12T09:38:02.763Z,22.16
2022-09-12T09:40:40.803Z,22.63
2022-09-12T09:43:19.833Z,22.45
2022-09-12T09:45:49.774Z,22.05
2022-09-12T09:48:20.953Z,22.51
2022-09-12T09:50:50.942Z,22.47
2022-09-12T09:53:35.248Z,22.63
2022-09-12T09:56:07.342Z,22.67
2022-09-12T09:58:37.388Z,22.81
2022-09-12T10:01:13.604Z,22.86
2022-09-12T10:03:42.305Z,22.83
2022-09-12T10:06:26.668Z,22.72
2022-09-12T10:09:19.090Z,22.68
2022-09-12T10:11:48.238Z,22.39
2022-09-12T10:14:40.586Z,22.47
2022-09-12T10:17:33.942Z,22.47
2022-09-12T10:20:21.529Z,22.55
2022-09-12T10:22:51.246Z,22.88
2022-09-12T10:25:20.566Z,23.02
2022-09-12T10:27:55.440Z,23.19
2022-09-12T10:30:25.937Z,23.31
2022-09-12T10:32:59.158Z,23.37
2022-09-12T10:35:33.608Z,21.95
2022-09-12T10:38:05.215Z,23.44
2022-09-12T10:40:39.001Z,23.48
2022-09-12T10:43:18.868Z,23.49
2022-09-12T10:45:47.314Z,23.48
2022-09-12T10:48:29.771Z,23.48
2022-09-12T10:50:58.785Z,23.46
2022-09-12T10:53:32.390Z,23.52
2022-09-12T10:56:09.328Z,23.72
2022-09-12T10:58:49.957Z,23.68
2022-09-12T11:01:30.901Z,23.72
2022-09-12T11:04:20.416Z,23.42
2022-09-12T11:07:00.123Z,23.57
2022-09-12T11:09:36.295Z,23.63
2022-09-12T11:12:14.509Z,23.65
2022-09-12T11:14:57.591Z,23.21
2022-09-12T11:17:37.032Z,23.49
2022-09-12T11:20:22.941Z,23.38
2022-09-12T11:23:23.891Z,23.17
2022-09-12T11:26:01.140Z,23.12
2022-09-12T11:28:49.296Z,23.17
2022-09-12T11:31:33.088Z,23.57
2022-09-12T11:34:04.153Z,23.68
2022-09-12T11:36:39.486Z,23.65
2022-09-12T11:39:15.669Z,23.91
2022-09-12T11:41:48.108Z,23.65
2022-09-12T11:44:24.519Z,24.18
2022-09-12T11:46:53.305Z,23.96
2022-09-12T11:49:34.821Z,24.51
2022-09-12T11:52:12.303Z,24.62
2022-09-12T11:54:52.846Z,24.77
2022-09-12T11:57:30.263Z,24.71
2022-09-12T12:00:03.717Z,24.46
2022-09-12T12:02:38.020Z,24.32
2022-09-12T12:05:21.550Z,24.34
2022-09-12T12:07:54.974Z,23.97
2022-09-12T12:10:27.275Z,23.70
2022-09-12T12:12:57.035Z,23.46
2022-09-12T12:15:27.172Z,23.63
2022-09-12T12:18:08.089Z,23.75
2022-09-12T12:20:37.287Z,23.77
2022-09-12T12:23:06.876Z,23.83
2022-09-12T12:25:51.614Z,23.63
2022-09-12T12:28:52.979Z,23.87
2022-09-12T12:31:21.254Z,23.87
2022-09-12T12:34:14.907Z,23.86
2022-09-12T12:36:44.026Z,23.91
2022-09-12T12:40:04.160Z,24.03
2022-09-12T12:43:29.502Z,23.88
2022-09-12T12:46:09.920Z,23.76
2022-09-12T12:49:07.206Z,23.93
2022-09-12T12:51:57.585Z,24.55
2022-09-12T12:54:35.499Z,25.18
2022-09-12T12:57:19.582Z,25.38
2022-09-12T12:59:53.129Z,25.76
2022-09-12T13:02:28.603Z,25.79
2022-09-12T13:04:58.382Z,25.82
2022-09-12T13:07:31.599Z,25.20
2022-09-12T13:10:01.455Z,24.78
2022-09-12T13:12:34.238Z,24.73
2022-09-12T13:15:25.593Z,24.39
2022-09-12T13:17:59.902Z,24.28
2022-09-12T13:20:31.641Z,24.64
2022-09-12T13:23:00.679Z,24.12
2022-09-12T13:25:31.650Z,24.32
2022-09-12T13:28:06.417Z,24.37
2022-09-12T13:30:37.593Z,24.43
2022-09-12T13:33:14.409Z,24.94
2022-09-12T13:35:55.990Z,25.81
2022-09-12T13:38:36.245Z,25.68
2022-09-12T13:41:26.994Z,26.06
2022-09-12T13:43:55.627Z,26.14
2022-09-12T13:46:32.211Z,26.79
2022-09-12T13:49:08.033Z,27.43
2022-09-12T13:51:36.493Z,27.99
2022-09-12T13:54:06.766Z,28.59
2022-09-12T13:56:35.082Z,28.47
2022-09-12T13:59:04.129Z,27.77
2022-09-12T14:01:40.758Z,28.46
2022-09-12T14:04:45.796Z,28.99
2022-09-12T14:07:17.476Z,28.61
2022-09-12T14:09:47.634Z,28.92
2022-09-12T14:12:25.483Z,29.08
2022-09-12T14:14:54.095Z,29.44
2022-09-12T14:17:31.761Z,29.82
2022-09-12T14:20:04.003Z,30.21
2022-09-12T14:22:32.673Z,30.31
2022-09-12T14:25:01.020Z,30.53
2022-09-12T14:27:30.539Z,30.52
2022-09-12T14:30:02.813Z,30.54
2022-09-12T14:32:30.793Z,30.67
2022-09-12T14:35:19.146Z,31.11
2022-09-12T14:37:49.118Z,31.79
2022-09-12T14:40:19.158Z,33.15
2022-09-12T14:42:49.675Z,34.25
2022-09-12T14:45:19.547Z,35.52
2022-09-12T14:47:50.460Z,36.53
2022-09-12T14:50:22.825Z,36.94
2022-09-12T14:53:04.881Z,37.29
2022-09-12T14:55:33.820Z,37.04
2022-09-12T14:58:23.612Z,36.54
2022-09-12T15:00:55.410Z,36.46
2022-09-12T15:03:29.577Z,35.84
2022-09-12T15:05:59.405Z,35.49
2022-09-12T15:08:27.643Z,35.60
2022-09-12T15:10:55.935Z,35.56
2022-09-12T15:13:25.939Z,35.85
2022-09-12T15:15:54.494Z,36.12
2022-09-12T15:18:23.633Z,35.89
2022-09-12T15:20:52.956Z,36.05
2022-09-12T15:23:28.602Z,35.62
2022-09-12T15:25:56.601Z,36.05
2022-09-12T15:28:25.253Z,37.41
2022-09-12T15:30:54.407Z,36.93
2022-09-12T15:33:24.366Z,35.87
2022-09-12T15:35:52.989Z,36.20
2022-09-12T15:38:26.190Z,37.27
2022-09-12T15:40:56.638Z,36.38
2022-09-12T15:43:26.350Z,36.89
2022-09-12T15:45:54.612Z,37.24
2022-09-12T15:48:22.650Z,37.70
2022-09-12T15:50:50.752Z,38.28
2022-09-12T15:53:18.619Z,38.87
2022-09-12T15:55:46.599Z,38.55
2022-09-12T15:58:15.956Z,37.98
2022-09-12T16:00:43.805Z,36.27
2022-09-12T16:03:22.831Z,36.16
2022-09-12T16:05:50.944Z,34.46
2022-09-12T16:08:18.837Z,31.96
2022-09-12T16:10:48.973Z,30.17
2022-09-12T16:13:18.648Z,28.71
2022-09-12T16:15:47.319Z,27.69
2022-09-12T16:18:15.814Z,26.79
2022-09-12T16:20:43.975Z,25.61
2022-09-12T16:23:13.626Z,24.88
2022-09-12T16:25:41.929Z,24.19
2022-09-12T16:28:10.396Z,23.29
2022-09-12T16:30:39.937Z,23.43
2022-09-12T16:33:08.715Z,23.13
2022-09-12T16:35:37.051Z,22.53
2022-09-12T16:38:05.248Z,23.11
2022-09-12T16:40:33.439Z,22.78
2022-09-12T16:43:01.956Z,22.56
2022-09-12T16:45:30.178Z,22.51
2022-09-12T16:47:59.817Z,22.41
2022-09-12T16:50:29.356Z,22.12
2022-09-12T16:52:57.677Z,22.01
2022-09-12T16:55:25.899Z,21.87
2022-09-12T16:57:54.291Z,21.77
2022-09-12T17:00:22.678Z,21.61
2022-09-12T17:02:51.150Z,21.44
2022-09-12T17:05:20.851Z,21.34
2022-09-12T17:07:49.098Z,20.98
2022-09-12T17:10:17.366Z,20.94
2022-09-12T17:12:45.858Z,20.66
2022-09-12T17:15:14.049Z,20.74
2022-09-12T17:17:45.996Z,20.57
2022-09-12T17:20:14.405Z,20.59
2022-09-12T17:22:44.157Z,20.52
2022-09-12T17:25:12.694Z,20.61
2022-09-12T17:27:40.957Z,20.48
2022-09-12T17:30:10.782Z,20.32
2022-09-12T17:32:39.188Z,20.18
2022-09-12T17:35:08.622Z,20.13
2022-09-12T17:37:37.277Z,19.98
2022-09-12T17:40:08.402Z,19.88
2022-09-12T17:42:36.970Z,19.94
2022-09-12T17:45:06.602Z,20.04
2022-09-12T17:47:35.073Z,19.93
2022-09-12T17:50:29.953Z,20.10
2022-09-12T17:52:51.589Z,20.01
2022-09-12T17:55:21.286Z,20.01
2022-09-12T17:57:49.609Z,19.93
2022-09-12T18:00:18.775Z,19.90
2022-09-12T18:02:46.984Z,19.86
2022-09-12T18:05:15.382Z,19.66
2022-09-12T18:07:44.341Z,19.56
2022-09-12T18:10:12.798Z,19.69
2022-09-12T18:12:43.647Z,19.53
2022-09-12T18:15:12.704Z,19.43
2022-09-12T18:17:41.302Z,19.29
2022-09-12T18:20:10.583Z,19.28
2022-09-12T18:22:39.062Z,19.21
2022-09-12T18:25:08.167Z,18.66
2022-09-12T18:27:36.678Z,19.37
2022-09-12T18:30:21.218Z,19.14
2022-09-12T18:32:51.560Z,19.18
2022-09-12T18:35:20.298Z,19.16
2022-09-12T18:37:48.743Z,19.31
2022-09-12T18:40:17.482Z,19.22
2022-09-12T18:42:46.009Z,19.30
2022-09-12T18:45:15.756Z,19.35
2022-09-12T18:47:44.290Z,19.32
2022-09-12T18:50:12.862Z,18.80
2022-09-12T18:52:41.444Z,19.33
2022-09-12T18:55:11.023Z,19.31
2022-09-12T18:57:41.746Z,19.28
2022-09-12T19:00:12.738Z,19.21
2022-09-12T19:02:43.027Z,19.21
2022-09-12T19:05:13.180Z,19.20
2022-09-12T19:07:41.481Z,18.89
2022-09-12T19:10:10.538Z,19.13
2022-09-12T19:12:39.032Z,19.06
2022-09-12T19:15:10.224Z,19.14
2022-09-12T19:17:38.714Z,19.04
2022-09-12T19:20:09.240Z,18.98
2022-09-12T19:22:37.801Z,18.79
2022-09-12T19:25:06.864Z,18.85
2022-09-12T19:27:35.287Z,18.75
2022-09-12T19:30:03.497Z,18.77
2022-09-12T19:32:32.396Z,18.76
2022-09-12T19:35:00.949Z,18.90
2022-09-12T19:37:32.655Z,18.79
2022-09-12T19:40:01.224Z,18.64
2022-09-12T19:42:29.531Z,18.59
2022-09-12T19:44:58.121Z,18.54
2022-09-12T19:47:26.715Z,18.49
2022-09-12T19:49:55.435Z,18.40
2022-09-12T19:52:24.147Z,18.42
2022-09-12T19:54:53.856Z,18.20
2022-09-12T19:57:22.239Z,18.23
2022-09-12T19:59:50.458Z,18.36
2022-09-12T20:02:18.806Z,18.32
2022-09-12T20:04:47.542Z,18.26
2022-09-12T20:07:15.799Z,18.14
2022-09-12T20:09:44.107Z,18.05
2022-09-12T20:12:14.617Z,18.18
2022-09-12T20:14:43.037Z,18.03
2022-09-12T20:17:11.421Z,18.00
2022-09-12T20:19:39.555Z,17.89
2022-09-12T20:22:07.947Z,17.41
2022-09-12T20:24:36.119Z,17.65
2022-09-12T20:27:04.537Z,17.60
2022-09-12T20:29:34.118Z,17.60
2022-09-12T20:32:02.196Z,17.61
2022-09-12T20:34:30.397Z,17.53
2022-09-12T20:36:58.529Z,17.62
2022-09-12T20:39:27.100Z,17.60
2022-09-12T20:41:55.330Z,17.58
2022-09-12T20:44:23.582Z,17.14
2022-09-12T20:46:53.689Z,17.43
2022-09-12T20:49:23.541Z,17.36
2022-09-12T20:51:51.806Z,17.50
2022-09-12T20:54:20.878Z,17.56
2022-09-12T20:56:49.271Z,17.42
2022-09-12T20:59:17.466Z,17.27
2022-09-12T21:01:45.675Z,17.25
2022-09-12T21:04:15.530Z,17.31
2022-09-12T21:06:43.754Z,17.38
2022-09-12T21:09:11.957Z,17.32
2022-09-12T21:11:40.063Z,17.25
2022-09-12T21:14:08.245Z,17.28
2022-09-12T21:16:38.745Z,17.26
2022-09-12T21:19:07.870Z,17.06
2022-09-12T21:21:38.036Z,17.23
2022-09-12T21:24:06.660Z,17.20
2022-09-12T21:26:34.912Z,17.10
2022-09-12T21:29:03.175Z,16.98
2022-09-12T21:31:31.329Z,16.99
2022-09-12T21:33:59.507Z,16.97
2022-09-12T21:36:27.690Z,16.88
2022-09-12T21:39:00.405Z,16.78
2022-09-12T21:41:28.898Z,16.64
2022-09-12T21:43:57.078Z,16.74
2022-09-12T21:46:25.620Z,16.69
2022-09-12T21:48:53.912Z,16.74
2022-09-12T21:51:22.093Z,16.68
2022-09-12T21:53:50.275Z,16.67
2022-09-12T21:56:19.783Z,16.69
2022-09-12T21:58:48.018Z,16.76
2022-09-12T22:01:16.315Z,16.44
2022-09-12T22:03:45.070Z,16.63
2022-09-12T22:06:14.326Z,16.50
2022-09-12T22:08:42.506Z,16.52
2022-09-12T22:11:11.514Z,16.48
2022-09-12T22:13:43.939Z,16.31
2022-09-12T22:16:12.859Z,16.40
2022-09-12T22:18:41.388Z,16.35
2022-09-12T22:21:13.235Z,16.30
2022-09-12T22:23:59.173Z,15.95
2022-09-12T22:26:28.367Z,16.32
2022-09-12T22:28:57.874Z,16.34
2022-09-12T22:31:27.109Z,16.37
2022-09-12T22:33:57.174Z,16.16
2022-09-12T22:36:30.498Z,16.21
2022-09-12T22:38:59.552Z,16.29
2022-09-12T22:41:28.597Z,16.22
2022-09-12T22:43:58.689Z,16.44
2022-09-12T22:46:27.686Z,16.37
2022-09-12T22:48:56.163Z,16.26
2022-09-12T22:51:24.357Z,15.99
2022-09-12T22:53:53.089Z,16.04
2022-09-12T22:56:21.376Z,16.15
2022-09-12T22:58:50.067Z,16.02
2022-09-12T23:01:20.340Z,16.02
2022-09-12T23:03:48.602Z,15.82
2022-09-12T23:06:17.416Z,16.00
2022-09-12T23:08:45.622Z,16.04
2022-09-12T23:11:15.632Z,15.90
2022-09-12T23:13:45.743Z,15.98
2022-09-12T23:16:17.501Z,15.22
2022-09-12T23:18:47.482Z,15.99
2022-09-12T23:21:18.771Z,16.06
2022-09-12T23:23:47.377Z,16.02
2022-09-12T23:26:18.678Z,15.84
2022-09-12T23:28:51.742Z,16.02
2022-09-12T23:31:20.571Z,15.98
2022-09-12T23:33:51.172Z,15.96
2022-09-12T23:36:19.772Z,15.90
2022-09-12T23:38:48.444Z,15.72
2022-09-12T23:41:18.186Z,15.77
2022-09-12T23:43:47.322Z,15.67
2022-09-12T23:46:17.193Z,15.67
2022-09-12T23:48:46.163Z,15.66
2022-09-12T23:51:16.021Z,15.78
2022-09-12T23:53:44.300Z,15.71
2022-09-12T23:56:12.654Z,15.67
2022-09-12T23:58:40.847Z,14.97
